createdAt,value
2023-06-15T00:01:59.679Z,23.49
2023-06-15T00:04:32.118Z,23.46
2023-06-15T00:07:04.572Z,23.45
2023-06-15T00:09:36.573Z,23.38
2023-06-15T00:12:10.726Z,23.30
2023-06-15T00:14:42.708Z,23.29
2023-06-15T00:17:15.466Z,23.24
2023-06-15T00:19:47.460Z,23.18
2023-06-15T00:22:19.481Z,23.16
2023-06-15T00:24:51.455Z,23.12
2023-06-15T00:27:23.473Z,23.09
2023-06-15T00:29:55.508Z,23.01
2023-06-15T00:32:27.603Z,23.04
2023-06-15T00:34:59.693Z,23.02
2023-06-15T00:37:31.716Z,22.98
2023-06-15T00:40:07.229Z,22.92
2023-06-15T00:42:40.116Z,22.92
2023-06-15T00:45:12.466Z,22.81
2023-06-15T00:47:45.220Z,22.87
2023-06-15T00:50:20.623Z,22.83
2023-06-15T00:52:56.534Z,22.79
2023-06-15T00:55:32.570Z,22.74
2023-06-15T00:58:05.617Z,22.71
2023-06-15T01:00:38.672Z,22.69
2023-06-15T01:03:13.871Z,22.65
2023-06-15T01:05:46.044Z,22.63
2023-06-15T01:08:18.231Z,22.59
2023-06-15T01:10:54.070Z,22.57
2023-06-15T01:13:26.708Z,22.56
2023-06-15T01:16:03.443Z,22.51
2023-06-15T01:18:42.578Z,22.45
2023-06-15T01:21:15.654Z,22.40
2023-06-15T01:24:24.397Z,22.31
2023-06-15T01:26:58.334Z,22.34
2023-06-15T01:29:30.915Z,22.28
2023-06-15T01:32:05.768Z,22.25
2023-06-15T01:34:38.728Z,22.20
2023-06-15T01:37:10.810Z,22.19
2023-06-15T01:39:44.019Z,22.18
2023-06-15T01:42:16.587Z,22.14
2023-06-15T01:44:50.965Z,22.10
2023-06-15T01:47:23.911Z,22.08
2023-06-15T01:49:56.814Z,21.91
2023-06-15T01:52:28.804Z,22.02
2023-06-15T01:55:01.068Z,21.99
2023-06-15T01:57:41.912Z,21.95
2023-06-15T02:00:14.613Z,21.94
2023-06-15T02:02:46.625Z,21.89
2023-06-15T02:05:20.036Z,21.86
2023-06-15T02:07:52.308Z,21.82
2023-06-15T02:10:24.517Z,21.78
2023-06-15T02:12:57.966Z,21.72
2023-06-15T02:15:30.382Z,21.69
2023-06-15T02:18:04.002Z,21.62
2023-06-15T02:20:37.370Z,21.65
2023-06-15T02:23:11.711Z,21.59
2023-06-15T02:25:43.755Z,21.59
2023-06-15T02:28:15.899Z,21.57
2023-06-15T02:30:47.876Z,21.55
2023-06-15T02:33:20.613Z,21.51
2023-06-15T02:35:52.561Z,21.50
2023-06-15T02:38:24.486Z,21.48
2023-06-15T02:40:56.444Z,21.43
2023-06-15T02:43:28.422Z,21.40
2023-06-15T02:46:00.520Z,21.36
2023-06-15T02:48:34.156Z,21.36
2023-06-15T02:51:06.128Z,21.34
2023-06-15T02:53:38.236Z,21.34
2023-06-15T02:56:10.503Z,21.31
2023-06-15T02:58:43.330Z,21.27
2023-06-15T03:01:18.354Z,21.27
2023-06-15T03:03:51.459Z,21.22
2023-06-15T03:06:25.952Z,21.17
2023-06-15T03:08:58.004Z,21.15
2023-06-15T03:11:30.094Z,21.15
2023-06-15T03:14:02.274Z,20.98
2023-06-15T03:16:40.506Z,21.36
2023-06-15T03:19:12.711Z,21.12
2023-06-15T03:21:48.380Z,21.07
2023-06-15T03:24:22.300Z,21.06
2023-06-15T03:26:58.548Z,21.10
2023-06-15T03:29:32.837Z,21.07
2023-06-15T03:32:07.437Z,21.09
2023-06-15T03:34:39.718Z,21.08
2023-06-15T03:37:11.712Z,21.07
2023-06-15T03:39:43.698Z,21.03
2023-06-15T03:42:16.353Z,21.00
2023-06-15T03:44:48.321Z,21.00
2023-06-15T03:47:20.458Z,21.00
2023-06-15T03:49:52.388Z,21.01
2023-06-15T03:52:24.522Z,20.93
2023-06-15T03:54:56.473Z,21.00
2023-06-15T03:57:28.398Z,21.00
2023-06-15T04:00:00.518Z,20.98
2023-06-15T04:02:32.546Z,20.99
2023-06-15T04:05:05.041Z,20.97
2023-06-15T04:07:37.527Z,20.96
2023-06-15T04:10:10.446Z,20.95
2023-06-15T04:12:43.113Z,20.96
2023-06-15T04:15:15.346Z,20.96
2023-06-15T04:17:49.813Z,20.92
2023-06-15T04:20:22.326Z,20.95
2023-06-15T04:22:54.245Z,20.96
2023-06-15T04:25:28.889Z,20.98
2023-06-15T04:28:01.196Z,20.97
2023-06-15T04:30:33.944Z,21.00
2023-06-15T04:33:06.316Z,21.00
2023-06-15T04:35:38.332Z,21.04
2023-06-15T04:38:13.848Z,21.05
2023-06-15T04:40:47.431Z,21.07
2023-06-15T04:43:20.162Z,21.05
2023-06-15T04:45:52.383Z,21.09
2023-06-15T04:48:29.016Z,21.10
2023-06-15T04:51:01.098Z,20.98
2023-06-15T04:53:33.935Z,21.13
2023-06-15T04:56:05.956Z,21.14
2023-06-15T04:58:37.917Z,21.05
2023-06-15T05:01:10.004Z,21.21
2023-06-15T05:03:43.129Z,21.24
2023-06-15T05:06:15.298Z,21.26
2023-06-15T05:08:47.339Z,21.30
2023-06-15T05:11:19.460Z,21.37
2023-06-15T05:13:51.675Z,21.41
2023-06-15T05:16:23.678Z,21.47
2023-06-15T05:18:55.797Z,21.55
2023-06-15T05:21:27.816Z,21.61
2023-06-15T05:23:59.789Z,21.69
2023-06-15T05:26:31.770Z,21.67
2023-06-15T05:29:03.769Z,21.86
2023-06-15T05:31:36.521Z,21.96
2023-06-15T05:34:08.639Z,22.08
2023-06-15T05:36:55.765Z,22.16
2023-06-15T05:39:29.361Z,22.26
2023-06-15T05:42:02.492Z,22.29
2023-06-15T05:44:34.446Z,22.46
2023-06-15T05:47:07.122Z,22.51
2023-06-15T05:49:39.091Z,22.61
2023-06-15T05:52:11.269Z,22.71
2023-06-15T05:54:45.945Z,22.84
2023-06-15T05:57:18.086Z,22.96
2023-06-15T05:59:50.037Z,23.05
2023-06-15T06:02:22.577Z,23.15
2023-06-15T06:04:54.726Z,23.25
2023-06-15T06:07:26.683Z,23.35
2023-06-15T06:09:58.681Z,23.47
2023-06-15T06:12:30.711Z,23.55
2023-06-15T06:15:02.757Z,23.61
2023-06-15T06:17:49.561Z,23.68
2023-06-15T06:20:26.715Z,23.74
2023-06-15T06:22:58.816Z,23.81
2023-06-15T06:25:30.901Z,23.90
2023-06-15T06:28:02.913Z,23.98
2023-06-15T06:30:35.103Z,24.09
2023-06-15T06:33:07.282Z,24.20
2023-06-15T06:35:39.292Z,24.27
2023-06-15T06:38:11.347Z,24.38
2023-06-15T06:40:43.414Z,24.47
2023-06-15T06:43:15.412Z,24.49
2023-06-15T06:45:47.463Z,24.52
2023-06-15T06:48:19.837Z,24.53
2023-06-15T06:50:51.862Z,24.60
2023-06-15T06:53:24.006Z,24.64
2023-06-15T06:55:55.971Z,24.73
2023-06-15T06:58:29.048Z,24.86
2023-06-15T07:01:01.107Z,24.97
2023-06-15T07:03:33.226Z,25.08
2023-06-15T07:06:05.570Z,25.16
2023-06-15T07:08:37.572Z,25.19
2023-06-15T07:11:09.909Z,25.26
2023-06-15T07:13:42.103Z,25.42
2023-06-15T07:16:14.474Z,25.51
2023-06-15T07:18:46.556Z,25.58
2023-06-15T07:21:18.589Z,25.65
2023-06-15T07:23:54.139Z,25.73
2023-06-15T07:26:26.657Z,25.78
2023-06-15T07:28:58.628Z,25.84
2023-06-15T07:31:30.594Z,25.96
2023-06-15T07:34:03.953Z,26.04
2023-06-15T07:36:36.401Z,26.13
2023-06-15T07:39:08.416Z,26.27
2023-06-15T07:41:40.376Z,26.38
2023-06-15T07:44:13.784Z,26.41
2023-06-15T07:46:45.930Z,26.48
2023-06-15T07:49:17.903Z,26.52
2023-06-15T07:52:03.468Z,26.57
2023-06-15T07:54:43.015Z,26.66
2023-06-15T07:57:15.527Z,26.78
2023-06-15T07:59:47.498Z,26.89
2023-06-15T08:02:19.674Z,26.96
2023-06-15T08:04:51.843Z,27.07
2023-06-15T08:07:24.172Z,27.18
2023-06-15T08:09:56.627Z,27.31
2023-06-15T08:12:28.575Z,27.43
2023-06-15T08:15:00.953Z,27.55
2023-06-15T08:17:32.964Z,27.61
2023-06-15T08:20:10.737Z,27.64
2023-06-15T08:22:43.398Z,27.69
2023-06-15T08:25:16.179Z,27.84
2023-06-15T08:27:48.410Z,27.94
2023-06-15T08:30:20.508Z,27.98
2023-06-15T08:32:52.612Z,28.04
2023-06-15T08:35:24.741Z,28.06
2023-06-15T08:37:56.809Z,28.20
2023-06-15T08:40:29.147Z,28.29
2023-06-15T08:43:03.331Z,28.46
2023-06-15T08:45:44.278Z,28.44
2023-06-15T08:48:18.171Z,28.49
2023-06-15T08:50:52.582Z,28.59
2023-06-15T08:53:25.990Z,28.62
2023-06-15T08:55:58.012Z,28.64
2023-06-15T08:58:29.969Z,28.57
2023-06-15T09:01:03.479Z,28.56
2023-06-15T09:03:36.030Z,28.60
2023-06-15T09:06:09.337Z,28.62
2023-06-15T09:08:41.396Z,28.75
2023-06-15T09:11:14.024Z,28.88
2023-06-15T09:13:46.562Z,28.79
2023-06-15T09:16:19.695Z,28.73
2023-06-15T09:18:54.290Z,28.60
2023-06-15T09:21:27.628Z,28.58
2023-06-15T09:24:09.569Z,28.54
2023-06-15T09:26:41.588Z,28.50
2023-06-15T09:29:13.765Z,28.48
2023-06-15T09:31:45.920Z,28.73
2023-06-15T09:34:17.919Z,28.82
2023-06-15T09:36:50.378Z,28.97
2023-06-15T09:39:24.757Z,29.09
2023-06-15T09:42:03.894Z,29.33
2023-06-15T09:44:39.950Z,29.44
2023-06-15T09:47:18.939Z,29.51
2023-06-15T09:49:50.892Z,29.61
2023-06-15T09:52:23.650Z,29.69
2023-06-15T09:54:55.908Z,29.83
2023-06-15T09:57:28.464Z,29.93
2023-06-15T10:00:00.675Z,29.97
2023-06-15T10:02:37.274Z,30.02
2023-06-15T10:05:15.286Z,30.07
2023-06-15T10:07:49.873Z,30.13
2023-06-15T10:10:24.390Z,30.19
2023-06-15T10:13:02.070Z,30.13
2023-06-15T10:15:36.762Z,29.79
2023-06-15T10:18:15.190Z,29.53
2023-06-15T10:20:47.549Z,29.30
2023-06-15T10:23:40.220Z,29.18
2023-06-15T10:26:14.145Z,29.27
2023-06-15T10:29:01.504Z,29.36
2023-06-15T10:32:16.550Z,29.43
2023-06-15T10:35:18.724Z,29.58
2023-06-15T10:38:17.370Z,29.55
2023-06-15T10:40:50.728Z,29.77
2023-06-15T10:43:28.599Z,29.97
2023-06-15T10:46:03.742Z,30.14
2023-06-15T10:48:40.181Z,30.36
2023-06-15T10:51:16.200Z,30.53
2023-06-15T10:53:48.659Z,30.61
2023-06-15T10:56:28.750Z,30.68
2023-06-15T10:59:05.684Z,30.76
2023-06-15T11:01:37.867Z,30.86
2023-06-15T11:04:31.795Z,30.84
2023-06-15T11:07:04.434Z,30.95
2023-06-15T11:09:39.306Z,30.94
2023-06-15T11:12:38.924Z,30.95
2023-06-15T11:15:15.166Z,30.99
2023-06-15T11:17:53.430Z,31.14
2023-06-15T11:20:44.456Z,31.25
2023-06-15T11:23:17.731Z,31.37
2023-06-15T11:25:52.472Z,31.44
2023-06-15T11:28:37.611Z,31.46
2023-06-15T11:31:11.740Z,31.42
2023-06-15T11:33:43.977Z,31.44
2023-06-15T11:36:16.723Z,31.21
2023-06-15T11:38:48.914Z,31.18
2023-06-15T11:41:24.039Z,31.26
2023-06-15T11:43:56.536Z,31.39
2023-06-15T11:46:28.509Z,31.46
2023-06-15T11:49:00.640Z,31.50
2023-06-15T11:51:32.636Z,31.52
2023-06-15T11:54:09.116Z,31.63
2023-06-15T11:56:48.733Z,31.70
2023-06-15T11:59:22.517Z,31.68
2023-06-15T12:01:59.314Z,31.77
2023-06-15T12:04:34.758Z,31.47
2023-06-15T12:07:07.135Z,31.21
2023-06-15T12:09:39.206Z,30.99
2023-06-15T12:12:32.618Z,31.03
2023-06-15T12:15:07.305Z,31.13
2023-06-15T12:17:39.313Z,31.19
2023-06-15T12:20:12.464Z,31.40
2023-06-15T12:22:48.142Z,31.49
2023-06-15T12:25:20.441Z,31.50
2023-06-15T12:27:55.932Z,31.48
2023-06-15T12:30:28.231Z,31.58
2023-06-15T12:33:00.312Z,31.72
2023-06-15T12:35:40.773Z,31.50
2023-06-15T12:38:13.156Z,31.21
2023-06-15T12:40:45.315Z,30.99
2023-06-15T12:43:21.079Z,30.94
2023-06-15T12:45:58.174Z,30.75
2023-06-15T12:48:30.526Z,30.60
2023-06-15T12:51:03.809Z,30.50
2023-06-15T12:53:38.308Z,30.42
2023-06-15T12:56:11.077Z,30.35
2023-06-15T12:58:43.188Z,30.24
2023-06-15T13:01:15.197Z,30.20
2023-06-15T13:03:47.335Z,30.26
2023-06-15T13:06:19.545Z,30.25
2023-06-15T13:08:52.422Z,30.34
2023-06-15T13:11:24.426Z,30.48
2023-06-15T13:13:56.551Z,30.75
2023-06-15T13:16:28.564Z,30.95
2023-06-15T13:19:00.701Z,31.26
2023-06-15T13:21:32.709Z,31.47
2023-06-15T13:24:05.047Z,31.70
2023-06-15T13:26:36.993Z,31.72
2023-06-15T13:29:08.968Z,31.64
2023-06-15T13:31:41.243Z,31.32
2023-06-15T13:34:13.211Z,30.93
2023-06-15T13:36:45.160Z,30.80
2023-06-15T13:39:17.168Z,30.66
2023-06-15T13:41:49.200Z,30.63
2023-06-15T13:44:21.518Z,30.74
2023-06-15T13:46:54.974Z,30.88
2023-06-15T13:49:27.849Z,30.84
2023-06-15T13:52:01.908Z,30.83
2023-06-15T13:54:33.947Z,30.91
2023-06-15T13:57:07.926Z,30.85
2023-06-15T13:59:39.905Z,30.79
2023-06-15T14:02:12.136Z,30.69
2023-06-15T14:04:44.521Z,30.51
2023-06-15T14:07:16.603Z,30.43
2023-06-15T14:09:49.528Z,30.29
2023-06-15T14:12:21.607Z,30.31
2023-06-15T14:14:53.626Z,30.36
2023-06-15T14:17:25.741Z,30.54
2023-06-15T14:19:58.930Z,30.76
2023-06-15T14:22:31.905Z,30.76
2023-06-15T14:25:04.353Z,30.87
2023-06-15T14:27:36.330Z,30.92
2023-06-15T14:30:09.075Z,31.07
2023-06-15T14:32:42.115Z,31.27
2023-06-15T14:35:14.107Z,31.43
2023-06-15T14:37:46.066Z,31.53
2023-06-15T14:40:19.217Z,31.49
2023-06-15T14:42:52.841Z,31.37
2023-06-15T14:45:24.940Z,31.36
2023-06-15T14:47:57.054Z,31.34
2023-06-15T14:50:29.613Z,31.19
2023-06-15T14:53:01.633Z,30.94
2023-06-15T14:55:34.181Z,30.77
2023-06-15T14:58:07.445Z,30.62
2023-06-15T15:00:39.394Z,30.44
2023-06-15T15:03:11.513Z,30.26
2023-06-15T15:05:44.148Z,30.18
2023-06-15T15:08:16.290Z,30.14
2023-06-15T15:10:48.318Z,30.13
2023-06-15T15:13:20.499Z,30.13
2023-06-15T15:15:52.637Z,30.23
2023-06-15T15:18:24.649Z,30.39
2023-06-15T15:21:00.996Z,30.66
2023-06-15T15:23:35.173Z,30.89
2023-06-15T15:26:07.222Z,31.00
2023-06-15T15:28:40.080Z,31.08
2023-06-15T15:31:12.182Z,31.17
2023-06-15T15:33:44.113Z,31.28
2023-06-15T15:36:16.093Z,31.20
2023-06-15T15:38:48.077Z,31.04
2023-06-15T15:41:22.601Z,30.98
2023-06-15T15:43:55.101Z,31.07
2023-06-15T15:46:28.009Z,31.06
2023-06-15T15:49:00.179Z,31.00
2023-06-15T15:51:32.108Z,31.04
2023-06-15T15:54:04.193Z,31.10
2023-06-15T15:56:36.114Z,31.05
2023-06-15T15:59:08.416Z,31.05
2023-06-15T16:01:40.530Z,30.81
2023-06-15T16:04:12.529Z,30.75
2023-06-15T16:06:44.537Z,30.84
2023-06-15T16:09:16.592Z,31.02
2023-06-15T16:11:48.554Z,31.06
2023-06-15T16:14:20.616Z,31.12
2023-06-15T16:16:52.617Z,31.15
2023-06-15T16:19:24.647Z,31.22
2023-06-15T16:21:56.681Z,31.21
2023-06-15T16:24:28.836Z,31.18
2023-06-15T16:27:00.928Z,31.22
2023-06-15T16:29:33.341Z,31.18
2023-06-15T16:32:05.712Z,31.10
2023-06-15T16:34:37.768Z,31.02
2023-06-15T16:37:09.824Z,30.97
2023-06-15T16:39:53.748Z,30.87
2023-06-15T16:42:31.411Z,30.79
2023-06-15T16:45:06.504Z,30.79
2023-06-15T16:47:39.747Z,30.80
2023-06-15T16:50:12.023Z,30.87
2023-06-15T16:52:43.994Z,30.89
2023-06-15T16:55:16.407Z,30.78
2023-06-15T16:57:48.503Z,30.71
2023-06-15T17:00:21.741Z,30.59
2023-06-15T17:02:55.989Z,30.47
2023-06-15T17:05:28.188Z,30.40
2023-06-15T17:08:00.739Z,30.31
2023-06-15T17:10:33.321Z,30.27
2023-06-15T17:13:05.457Z,30.27
2023-06-15T17:15:39.522Z,30.22
2023-06-15T17:18:13.475Z,30.15
2023-06-15T17:20:45.518Z,30.11
2023-06-15T17:23:17.492Z,29.94
2023-06-15T17:25:49.572Z,29.75
2023-06-15T17:28:21.589Z,29.66
2023-06-15T17:30:53.544Z,29.70
2023-06-15T17:33:25.537Z,29.69
2023-06-15T17:35:57.495Z,29.75
2023-06-15T17:38:30.404Z,29.64
2023-06-15T17:41:02.730Z,29.57
2023-06-15T17:43:34.721Z,29.46
2023-06-15T17:46:07.781Z,29.35
2023-06-15T17:48:39.940Z,29.23
2023-06-15T17:51:12.167Z,29.23
2023-06-15T17:53:44.890Z,29.18
2023-06-15T17:56:16.876Z,29.14
2023-06-15T17:58:49.464Z,29.06
2023-06-15T18:01:21.879Z,29.11
2023-06-15T18:03:53.970Z,29.14
2023-06-15T18:06:26.203Z,29.14
2023-06-15T18:08:58.202Z,29.04
2023-06-15T18:11:30.225Z,29.06
2023-06-15T18:14:02.341Z,29.03
2023-06-15T18:16:34.450Z,29.10
2023-06-15T18:19:06.472Z,29.11
2023-06-15T18:21:38.692Z,29.04
2023-06-15T18:24:13.125Z,29.02
2023-06-15T18:26:47.134Z,28.99
2023-06-15T18:29:19.072Z,28.96
2023-06-15T18:31:51.143Z,28.96
2023-06-15T18:34:23.168Z,28.89
2023-06-15T18:36:58.806Z,28.84
2023-06-15T18:39:31.345Z,28.80
2023-06-15T18:42:03.669Z,28.76
2023-06-15T18:44:36.160Z,28.79
2023-06-15T18:47:08.910Z,28.70
2023-06-15T18:49:40.844Z,28.58
2023-06-15T18:52:12.856Z,28.52
2023-06-15T18:54:45.642Z,28.46
2023-06-15T18:57:19.954Z,28.40
2023-06-15T18:59:51.999Z,28.33
2023-06-15T19:02:24.252Z,28.20
2023-06-15T19:04:56.370Z,28.14
2023-06-15T19:07:28.450Z,28.14
2023-06-15T19:10:00.643Z,28.04
2023-06-15T19:12:32.692Z,28.01
2023-06-15T19:15:05.488Z,27.95
2023-06-15T19:17:37.550Z,27.92
2023-06-15T19:20:12.080Z,27.90
2023-06-15T19:22:44.082Z,27.88
2023-06-15T19:25:16.315Z,27.82
2023-06-15T19:27:48.652Z,27.72
2023-06-15T19:30:20.901Z,27.70
2023-06-15T19:32:53.077Z,27.69
2023-06-15T19:35:25.192Z,27.63
2023-06-15T19:37:57.180Z,27.64
2023-06-15T19:40:29.256Z,27.60
2023-06-15T19:43:01.248Z,27.58
2023-06-15T19:45:34.675Z,27.53
2023-06-15T19:48:06.734Z,27.47
2023-06-15T19:50:38.865Z,27.45
2023-06-15T19:53:11.050Z,27.41
2023-06-15T19:55:42.982Z,27.30
2023-06-15T19:58:14.930Z,27.27
2023-06-15T20:00:46.999Z,27.18
2023-06-15T20:03:19.193Z,27.16
2023-06-15T20:05:51.343Z,27.12
2023-06-15T20:08:23.325Z,27.08
2023-06-15T20:10:55.390Z,27.07
2023-06-15T20:13:27.922Z,27.03
2023-06-15T20:16:05.787Z,26.93
2023-06-15T20:18:38.441Z,26.99
2023-06-15T20:21:10.879Z,26.94
2023-06-15T20:23:46.148Z,26.92
2023-06-15T20:26:18.147Z,26.91
2023-06-15T20:28:50.123Z,26.90
2023-06-15T20:31:23.622Z,26.86
2023-06-15T20:33:55.743Z,26.82
2023-06-15T20:36:27.888Z,26.76
2023-06-15T20:38:59.905Z,26.73
2023-06-15T20:41:31.932Z,26.65
2023-06-15T20:44:04.288Z,26.62
2023-06-15T20:46:36.727Z,26.60
2023-06-15T20:49:08.769Z,26.58
2023-06-15T20:51:40.724Z,26.55
2023-06-15T20:54:12.790Z,26.48
2023-06-15T20:56:44.804Z,26.44
2023-06-15T20:59:16.866Z,26.43
2023-06-15T21:01:48.856Z,26.36
2023-06-15T21:04:20.919Z,26.31
2023-06-15T21:06:53.079Z,26.27
2023-06-15T21:09:25.093Z,26.23
2023-06-15T21:11:57.217Z,26.18
2023-06-15T21:14:29.185Z,26.12
2023-06-15T21:17:01.377Z,26.12
2023-06-15T21:19:33.411Z,26.04
2023-06-15T21:22:05.678Z,25.99
2023-06-15T21:24:39.106Z,25.98
2023-06-15T21:27:12.186Z,25.88
2023-06-15T21:29:44.107Z,25.88
2023-06-15T21:32:18.045Z,25.82
2023-06-15T21:34:51.302Z,25.77
2023-06-15T21:37:23.892Z,25.72
2023-06-15T21:39:55.931Z,25.69
2023-06-15T21:42:27.910Z,25.60
2023-06-15T21:44:59.868Z,25.58
2023-06-15T21:47:33.116Z,25.54
2023-06-15T21:50:05.604Z,25.48
2023-06-15T21:52:37.566Z,25.45
2023-06-15T21:55:10.005Z,25.41
2023-06-15T21:57:42.669Z,25.39
2023-06-15T22:00:15.178Z,25.36
2023-06-15T22:02:47.245Z,25.32
2023-06-15T22:05:21.246Z,25.28
2023-06-15T22:07:54.992Z,25.28
2023-06-15T22:10:27.095Z,25.24
2023-06-15T22:13:00.240Z,25.19
2023-06-15T22:15:32.956Z,25.16
2023-06-15T22:18:06.740Z,25.12
2023-06-15T22:20:38.803Z,25.09
2023-06-15T22:23:11.012Z,25.05
2023-06-15T22:25:54.436Z,25.00
2023-06-15T22:28:28.446Z,24.97
2023-06-15T22:31:00.394Z,24.90
2023-06-15T22:33:32.342Z,24.85
2023-06-15T22:36:04.656Z,24.79
2023-06-15T22:38:39.632Z,24.73
2023-06-15T22:41:11.603Z,24.68
2023-06-15T22:43:43.571Z,24.64
2023-06-15T22:46:15.543Z,24.61
2023-06-15T22:48:48.132Z,24.58
2023-06-15T22:51:20.129Z,24.54
2023-06-15T22:53:52.122Z,24.52
2023-06-15T22:56:24.244Z,24.47
2023-06-15T22:58:57.227Z,24.46
2023-06-15T23:01:29.338Z,24.30
2023-06-15T23:04:01.559Z,24.35
2023-06-15T23:06:44.562Z,24.32
2023-06-15T23:09:16.598Z,24.26
2023-06-15T23:11:51.898Z,24.21
2023-06-15T23:14:28.514Z,24.16
2023-06-15T23:17:04.191Z,24.09
2023-06-15T23:19:37.467Z,24.06
2023-06-15T23:22:12.374Z,24.04
2023-06-15T23:24:44.351Z,23.99
2023-06-15T23:27:16.760Z,23.97
2023-06-15T23:29:50.351Z,23.91
2023-06-15T23:32:22.329Z,23.89
2023-06-15T23:34:54.359Z,23.87
2023-06-15T23:37:26.624Z,23.76
2023-06-15T23:39:58.575Z,23.76
2023-06-15T23:42:30.533Z,23.67
2023-06-15T23:45:02.941Z,23.61
2023-06-15T23:47:35.044Z,23.60
2023-06-15T23:50:07.834Z,23.53
2023-06-15T23:52:39.913Z,23.52
2023-06-15T23:55:12.203Z,23.45
2023-06-15T23:57:44.275Z,23.42
